createdAt,value
2023-03-03T00:01:30.418Z,63.48
2023-03-03T00:03:57.382Z,63.86
2023-03-03T00:06:24.778Z,64.64
2023-03-03T00:08:51.709Z,63.51
2023-03-03T00:11:18.254Z,63.50
2023-03-03T00:13:55.870Z,63.26
2023-03-03T00:16:35.218Z,62.00
2023-03-03T00:19:02.179Z,62.18
2023-03-03T00:21:32.249Z,62.81
2023-03-03T00:24:35.146Z,61.66
2023-03-03T00:27:16.563Z,61.39
2023-03-03T00:29:49.229Z,62.69
2023-03-03T00:32:15.887Z,62.51
2023-03-03T00:34:43.562Z,62.00
2023-03-03T00:37:25.338Z,61.60
2023-03-03T00:39:51.969Z,62.21
2023-03-03T00:42:19.346Z,61.89
2023-03-03T00:44:55.983Z,61.43
2023-03-03T00:47:38.000Z,61.37
2023-03-03T00:50:07.680Z,61.67
2023-03-03T00:52:40.668Z,61.96
2023-03-03T00:55:08.626Z,61.14
2023-03-03T00:57:35.179Z,61.31
2023-03-03T01:00:04.668Z,61.11
2023-03-03T01:02:32.026Z,60.64
2023-03-03T01:04:58.586Z,61.22
2023-03-03T01:07:25.551Z,61.64
2023-03-03T01:09:52.173Z,61.70
2023-03-03T01:12:18.666Z,62.30
2023-03-03T01:14:45.879Z,62.31
2023-03-03T01:17:12.591Z,62.61
2023-03-03T01:19:39.472Z,62.70
2023-03-03T01:22:06.306Z,62.45
2023-03-03T01:24:33.487Z,62.42
2023-03-03T01:27:00.147Z,62.79
2023-03-03T01:29:26.885Z,63.09
2023-03-03T01:31:53.748Z,62.72
2023-03-03T01:34:20.616Z,61.09
2023-03-03T01:36:47.163Z,62.84
2023-03-03T01:39:13.854Z,62.76
2023-03-03T01:41:40.532Z,61.77
2023-03-03T01:44:11.644Z,62.47
2023-03-03T01:47:13.114Z,62.53
2023-03-03T01:49:51.164Z,62.73
2023-03-03T01:52:27.757Z,63.05
2023-03-03T01:54:59.113Z,62.68
2023-03-03T01:57:35.508Z,63.76
2023-03-03T02:00:05.083Z,63.21
2023-03-03T02:02:41.215Z,63.47
2023-03-03T02:05:09.064Z,64.42
2023-03-03T02:07:36.455Z,63.51
2023-03-03T02:10:16.775Z,64.66
2023-03-03T02:12:54.692Z,63.81
2023-03-03T02:15:28.130Z,64.06
2023-03-03T02:18:04.789Z,63.71
2023-03-03T02:20:52.251Z,64.21
2023-03-03T02:23:29.344Z,64.71
2023-03-03T02:25:58.788Z,65.80
2023-03-03T02:28:31.368Z,64.83
2023-03-03T02:31:02.036Z,65.21
2023-03-03T02:33:29.634Z,65.12
2023-03-03T02:35:56.661Z,64.80
2023-03-03T02:38:32.311Z,65.95
2023-03-03T02:41:11.902Z,65.94
2023-03-03T02:43:52.205Z,65.38
2023-03-03T02:46:19.274Z,65.12
2023-03-03T02:48:45.750Z,65.23
2023-03-03T02:51:12.438Z,65.10
2023-03-03T02:53:39.350Z,66.02
2023-03-03T02:56:09.317Z,65.22
2023-03-03T02:58:37.361Z,66.41
2023-03-03T03:01:05.237Z,66.67
2023-03-03T03:03:32.436Z,66.98
2023-03-03T03:06:02.270Z,66.99
2023-03-03T03:08:28.824Z,66.64
2023-03-03T03:10:56.904Z,66.95
2023-03-03T03:13:25.965Z,66.27
2023-03-03T03:15:52.680Z,65.90
2023-03-03T03:18:19.265Z,65.63
2023-03-03T03:20:48.371Z,65.06
2023-03-03T03:23:16.857Z,66.26
2023-03-03T03:25:46.390Z,66.53
2023-03-03T03:28:19.039Z,65.96
2023-03-03T03:30:46.246Z,66.22
2023-03-03T03:33:13.358Z,66.40
2023-03-03T03:35:45.390Z,65.77
2023-03-03T03:38:14.241Z,66.87
2023-03-03T03:40:42.472Z,68.35
2023-03-03T03:43:09.533Z,67.42
2023-03-03T03:45:36.177Z,68.96
2023-03-03T03:48:04.079Z,68.28
2023-03-03T03:50:32.057Z,69.35
2023-03-03T03:52:58.761Z,69.35
2023-03-03T03:55:25.513Z,69.01
2023-03-03T03:57:52.468Z,68.92
2023-03-03T04:00:19.432Z,68.45
2023-03-03T04:02:53.300Z,68.54
2023-03-03T04:05:20.221Z,67.93
2023-03-03T04:07:47.284Z,67.29
2023-03-03T04:10:15.671Z,66.86
2023-03-03T04:12:42.296Z,67.35
2023-03-03T04:15:14.349Z,66.86
2023-03-03T04:17:42.080Z,67.28
2023-03-03T04:20:12.641Z,67.84
2023-03-03T04:22:39.490Z,67.40
2023-03-03T04:25:06.892Z,68.27
2023-03-03T04:27:38.748Z,68.92
2023-03-03T04:30:06.793Z,68.81
2023-03-03T04:32:33.967Z,67.46
2023-03-03T04:35:08.154Z,67.78
2023-03-03T04:37:38.834Z,67.72
2023-03-03T04:40:07.905Z,67.21
2023-03-03T04:42:35.570Z,67.64
2023-03-03T04:45:04.306Z,68.06
2023-03-03T04:47:32.459Z,68.16
2023-03-03T04:49:59.269Z,67.35
2023-03-03T04:52:26.505Z,67.82
2023-03-03T04:54:53.065Z,68.07
2023-03-03T04:57:19.752Z,67.65
2023-03-03T04:59:46.424Z,66.12
2023-03-03T05:02:13.154Z,67.83
2023-03-03T05:04:39.823Z,66.66
2023-03-03T05:07:06.446Z,67.48
2023-03-03T05:09:33.084Z,66.69
2023-03-03T05:11:59.802Z,67.69
2023-03-03T05:14:27.025Z,67.28
2023-03-03T05:16:53.925Z,67.68
2023-03-03T05:19:20.474Z,67.32
2023-03-03T05:21:47.056Z,68.54
2023-03-03T05:24:14.347Z,67.73
2023-03-03T05:26:41.486Z,67.58
2023-03-03T05:29:09.093Z,68.54
2023-03-03T05:31:35.664Z,68.04
2023-03-03T05:34:02.261Z,68.01
2023-03-03T05:36:28.874Z,67.91
2023-03-03T05:38:55.780Z,68.27
2023-03-03T05:41:22.420Z,68.12
2023-03-03T05:43:49.073Z,67.97
2023-03-03T05:46:16.833Z,67.53
2023-03-03T05:48:43.468Z,67.14
2023-03-03T05:51:10.006Z,66.54
2023-03-03T05:53:36.642Z,65.50
2023-03-03T05:56:03.441Z,66.81
2023-03-03T05:58:30.276Z,67.61
2023-03-03T06:00:56.905Z,67.69
2023-03-03T06:03:23.486Z,65.97
2023-03-03T06:05:49.986Z,66.67
2023-03-03T06:08:16.559Z,65.49
2023-03-03T06:10:43.092Z,66.08
2023-03-03T06:13:11.625Z,65.57
2023-03-03T06:15:38.660Z,65.84
2023-03-03T06:18:05.317Z,65.50
2023-03-03T06:20:32.995Z,65.55
2023-03-03T06:22:59.486Z,64.83
2023-03-03T06:25:26.050Z,64.91
2023-03-03T06:27:52.662Z,64.87
2023-03-03T06:30:19.342Z,64.41
2023-03-03T06:32:46.107Z,65.54
2023-03-03T06:35:12.844Z,65.25
2023-03-03T06:37:39.416Z,65.10
2023-03-03T06:40:06.893Z,64.62
2023-03-03T06:42:33.429Z,64.38
2023-03-03T06:45:00.238Z,64.43
2023-03-03T06:47:26.741Z,64.12
2023-03-03T06:49:53.376Z,63.82
2023-03-03T06:52:25.454Z,63.59
2023-03-03T06:54:57.923Z,63.60
2023-03-03T06:57:33.266Z,63.30
2023-03-03T07:00:15.472Z,62.83
2023-03-03T07:02:42.061Z,62.68
2023-03-03T07:05:16.021Z,62.88
2023-03-03T07:07:42.829Z,63.07
2023-03-03T07:10:20.474Z,63.06
2023-03-03T07:12:47.053Z,63.03
2023-03-03T07:15:13.676Z,62.73
2023-03-03T07:17:45.459Z,63.35
2023-03-03T07:20:35.156Z,63.58
2023-03-03T07:23:32.941Z,63.91
2023-03-03T07:25:59.502Z,63.67
2023-03-03T07:28:32.824Z,63.64
2023-03-03T07:30:59.906Z,63.91
2023-03-03T07:33:35.021Z,63.27
2023-03-03T07:36:03.924Z,64.45
2023-03-03T07:38:52.858Z,63.86
2023-03-03T07:41:25.752Z,64.22
2023-03-03T07:44:11.331Z,64.25
2023-03-03T07:46:43.508Z,64.68
2023-03-03T07:49:22.883Z,65.29
2023-03-03T07:52:00.144Z,64.30
2023-03-03T07:54:37.570Z,64.81
2023-03-03T07:57:10.087Z,64.54
2023-03-03T07:59:38.729Z,63.96
2023-03-03T08:02:23.787Z,65.34
2023-03-03T08:04:52.441Z,64.78
2023-03-03T08:07:23.343Z,64.42
2023-03-03T08:09:53.898Z,64.35
2023-03-03T08:12:41.866Z,64.51
2023-03-03T08:15:36.481Z,65.47
2023-03-03T08:18:19.119Z,65.51
2023-03-03T08:20:51.188Z,65.61
2023-03-03T08:23:19.621Z,65.88
2023-03-03T08:25:46.951Z,65.42
2023-03-03T08:28:14.321Z,64.38
2023-03-03T08:30:41.708Z,64.68
2023-03-03T08:33:08.758Z,63.95
2023-03-03T08:35:35.304Z,65.11
2023-03-03T08:38:01.981Z,66.09
2023-03-03T08:40:28.965Z,65.61
2023-03-03T08:42:55.581Z,64.99
2023-03-03T08:45:22.141Z,64.91
2023-03-03T08:47:48.739Z,64.83
2023-03-03T08:50:15.824Z,64.25
2023-03-03T08:52:42.611Z,64.91
2023-03-03T08:55:09.348Z,64.73
2023-03-03T08:57:36.119Z,65.07
2023-03-03T09:00:02.982Z,65.88
2023-03-03T09:02:29.536Z,65.82
2023-03-03T09:04:56.198Z,65.34
2023-03-03T09:07:22.782Z,64.91
2023-03-03T09:09:49.321Z,65.53
2023-03-03T09:12:40.446Z,65.53
2023-03-03T09:15:18.875Z,64.46
2023-03-03T09:17:46.638Z,64.83
2023-03-03T09:20:34.997Z,64.45
2023-03-03T09:23:27.750Z,64.57
2023-03-03T09:25:54.480Z,64.14
2023-03-03T09:28:26.312Z,65.01
2023-03-03T09:30:54.493Z,64.84
2023-03-03T09:33:31.303Z,65.33
2023-03-03T09:36:35.517Z,64.88
2023-03-03T09:39:16.220Z,64.78
2023-03-03T09:42:08.787Z,65.42
2023-03-03T09:44:54.192Z,65.42
2023-03-03T09:47:29.855Z,65.21
2023-03-03T09:50:15.632Z,65.63
2023-03-03T09:52:45.245Z,65.53
2023-03-03T09:55:25.582Z,65.89
2023-03-03T09:58:11.403Z,66.19
2023-03-03T10:00:49.915Z,66.01
2023-03-03T10:03:34.007Z,67.08
2023-03-03T10:06:01.607Z,65.94
2023-03-03T10:08:42.547Z,66.00
2023-03-03T10:11:09.114Z,64.26
2023-03-03T10:13:47.465Z,63.71
2023-03-03T10:16:54.245Z,63.28
2023-03-03T10:19:34.157Z,63.94
2023-03-03T10:22:28.755Z,64.77
2023-03-03T10:25:04.976Z,64.19
2023-03-03T10:27:59.106Z,63.54
2023-03-03T10:30:54.773Z,64.13
2023-03-03T10:33:48.059Z,65.00
2023-03-03T10:36:34.413Z,64.74
2023-03-03T10:39:34.474Z,64.25
2023-03-03T10:42:20.950Z,63.59
2023-03-03T10:45:07.858Z,64.03
2023-03-03T10:48:06.239Z,65.12
2023-03-03T10:50:51.958Z,63.71
2023-03-03T10:53:22.064Z,63.89
2023-03-03T10:55:51.783Z,63.95
2023-03-03T10:58:33.891Z,63.57
2023-03-03T11:01:48.529Z,63.18
2023-03-03T11:04:41.346Z,63.58
2023-03-03T11:07:17.387Z,63.12
2023-03-03T11:10:05.908Z,62.67
2023-03-03T11:12:50.753Z,61.83
2023-03-03T11:15:36.420Z,61.60
2023-03-03T11:18:23.821Z,62.12
2023-03-03T11:21:13.161Z,60.84
2023-03-03T11:23:39.665Z,62.56
2023-03-03T11:26:23.857Z,62.33
2023-03-03T11:29:00.769Z,61.33
2023-03-03T11:31:45.666Z,60.94
2023-03-03T11:34:48.538Z,61.22
2023-03-03T11:37:28.040Z,60.96
2023-03-03T11:40:01.680Z,60.56
2023-03-03T11:42:33.881Z,60.52
2023-03-03T11:45:17.768Z,58.79
2023-03-03T11:47:56.640Z,60.20
2023-03-03T11:50:35.406Z,60.54
2023-03-03T11:53:37.468Z,60.92
2023-03-03T11:56:10.817Z,60.42
2023-03-03T11:59:14.769Z,59.47
2023-03-03T12:01:57.313Z,59.62
2023-03-03T12:04:35.812Z,60.35
2023-03-03T12:07:22.838Z,59.98
2023-03-03T12:10:02.330Z,59.26
2023-03-03T12:12:42.534Z,59.56
2023-03-03T12:15:28.603Z,58.94
2023-03-03T12:18:12.815Z,59.35
2023-03-03T12:21:18.130Z,59.21
2023-03-03T12:24:23.558Z,58.68
2023-03-03T12:27:22.356Z,58.68
2023-03-03T12:30:14.898Z,58.63
2023-03-03T12:32:56.451Z,58.04
2023-03-03T12:35:36.762Z,57.86
2023-03-03T12:38:15.298Z,58.10
2023-03-03T12:40:57.028Z,57.50
2023-03-03T12:43:42.939Z,58.00
2023-03-03T12:46:29.393Z,57.79
2023-03-03T12:48:56.210Z,57.31
2023-03-03T12:51:32.027Z,56.39
2023-03-03T12:54:17.734Z,56.88
2023-03-03T12:57:00.010Z,57.17
2023-03-03T12:59:41.974Z,57.19
2023-03-03T13:02:26.747Z,57.66
2023-03-03T13:05:18.960Z,57.48
2023-03-03T13:08:08.835Z,57.11
2023-03-03T13:10:43.026Z,57.37
2023-03-03T13:13:21.724Z,58.06
2023-03-03T13:16:06.132Z,57.89
2023-03-03T13:18:56.751Z,57.67
2023-03-03T13:21:40.417Z,57.32
2023-03-03T13:24:21.341Z,56.71
2023-03-03T13:26:53.286Z,56.12
2023-03-03T13:29:23.204Z,56.43
2023-03-03T13:31:54.620Z,56.20
2023-03-03T13:34:34.928Z,56.29
2023-03-03T13:37:08.224Z,56.35
2023-03-03T13:39:42.978Z,55.92
2023-03-03T13:42:54.340Z,55.49
2023-03-03T13:45:31.166Z,56.40
2023-03-03T13:48:07.046Z,56.74
2023-03-03T13:50:44.791Z,56.24
2023-03-03T13:53:30.626Z,55.69
2023-03-03T13:55:57.269Z,56.35
2023-03-03T13:58:52.462Z,56.00
2023-03-03T14:01:27.492Z,55.51
2023-03-03T14:04:05.931Z,56.84
2023-03-03T14:06:33.021Z,55.37
2023-03-03T14:09:11.405Z,55.65
2023-03-03T14:11:47.432Z,55.33
2023-03-03T14:14:19.742Z,56.92
2023-03-03T14:16:52.481Z,55.69
2023-03-03T14:19:25.990Z,56.11
2023-03-03T14:22:04.095Z,56.58
2023-03-03T14:24:31.226Z,56.15
2023-03-03T14:27:00.065Z,54.41
2023-03-03T14:29:26.911Z,54.89
2023-03-03T14:31:55.351Z,54.67
2023-03-03T14:34:40.919Z,54.10
2023-03-03T14:37:23.435Z,54.22
2023-03-03T14:40:02.086Z,54.23
2023-03-03T14:42:51.911Z,54.49
2023-03-03T14:45:31.240Z,54.29
2023-03-03T14:47:59.521Z,55.07
2023-03-03T14:50:33.307Z,54.18
2023-03-03T14:53:10.307Z,54.16
2023-03-03T14:55:40.331Z,54.08
2023-03-03T14:58:29.211Z,54.13
2023-03-03T15:01:15.414Z,53.36
2023-03-03T15:04:09.925Z,52.71
2023-03-03T15:06:45.316Z,51.44
2023-03-03T15:09:24.015Z,51.17
2023-03-03T15:11:52.491Z,51.42
2023-03-03T15:14:23.992Z,51.93
2023-03-03T15:16:50.666Z,51.79
2023-03-03T15:19:39.406Z,52.33
2023-03-03T15:22:20.003Z,51.96
2023-03-03T15:25:21.150Z,51.84
2023-03-03T15:28:34.664Z,52.59
2023-03-03T15:31:06.853Z,52.62
2023-03-03T15:33:52.088Z,52.71
2023-03-03T15:36:43.791Z,52.74
2023-03-03T15:39:39.558Z,53.33
2023-03-03T15:42:14.903Z,53.59
2023-03-03T15:45:08.386Z,53.36
2023-03-03T15:47:47.085Z,53.37
2023-03-03T15:50:34.157Z,53.97
2023-03-03T15:53:38.154Z,53.86
2023-03-03T15:56:14.443Z,53.89
2023-03-03T15:58:44.034Z,53.43
2023-03-03T16:01:29.717Z,53.76
2023-03-03T16:04:00.815Z,53.76
2023-03-03T16:06:48.092Z,54.03
2023-03-03T16:09:14.634Z,54.18
2023-03-03T16:11:49.684Z,54.30
2023-03-03T16:14:55.200Z,53.88
2023-03-03T16:18:08.626Z,54.47
2023-03-03T16:20:55.677Z,53.93
2023-03-03T16:23:25.136Z,54.12
2023-03-03T16:25:58.138Z,53.42
2023-03-03T16:29:14.918Z,53.09
2023-03-03T16:31:54.323Z,53.59
2023-03-03T16:34:33.515Z,53.89
2023-03-03T16:37:23.097Z,53.14
2023-03-03T16:40:00.517Z,52.28
2023-03-03T16:42:29.736Z,52.74
2023-03-03T16:45:21.869Z,52.52
2023-03-03T16:47:58.047Z,53.14
2023-03-03T16:50:27.562Z,53.12
2023-03-03T16:53:01.225Z,52.93
2023-03-03T16:55:49.307Z,53.09
2023-03-03T16:58:53.304Z,52.65
2023-03-03T17:01:58.575Z,52.84
2023-03-03T17:04:47.320Z,53.65
2023-03-03T17:07:26.010Z,53.61
2023-03-03T17:10:16.598Z,53.37
2023-03-03T17:13:05.506Z,53.51
2023-03-03T17:15:57.868Z,53.69
2023-03-03T17:19:01.457Z,53.68
2023-03-03T17:21:40.035Z,53.98
2023-03-03T17:24:12.694Z,54.44
2023-03-03T17:26:58.490Z,54.90
2023-03-03T17:29:39.978Z,54.45
2023-03-03T17:32:16.298Z,55.79
2023-03-03T17:35:10.577Z,56.55
2023-03-03T17:37:58.333Z,55.74
2023-03-03T17:40:48.287Z,55.19
2023-03-03T17:43:23.988Z,55.85
2023-03-03T17:45:55.830Z,55.97
2023-03-03T17:48:31.677Z,56.40
2023-03-03T17:51:13.415Z,56.59
2023-03-03T17:54:00.127Z,56.49
2023-03-03T17:56:38.481Z,56.41
2023-03-03T17:59:20.635Z,55.32
2023-03-03T18:02:38.513Z,56.83
2023-03-03T18:05:38.291Z,56.84
2023-03-03T18:08:27.995Z,56.96
2023-03-03T18:11:09.842Z,56.76
2023-03-03T18:14:02.700Z,57.15
2023-03-03T18:17:04.656Z,57.41
2023-03-03T18:20:01.449Z,57.39
2023-03-03T18:22:41.047Z,58.21
2023-03-03T18:25:11.919Z,57.94
2023-03-03T18:28:00.997Z,57.39
2023-03-03T18:30:48.538Z,57.89
2023-03-03T18:33:16.802Z,58.21
2023-03-03T18:35:46.083Z,58.26
2023-03-03T18:38:15.916Z,58.81
2023-03-03T18:41:00.782Z,58.56
2023-03-03T18:43:40.791Z,59.23
2023-03-03T18:46:30.768Z,58.71
2023-03-03T18:49:05.420Z,58.23
2023-03-03T18:51:35.453Z,58.93
2023-03-03T18:54:16.889Z,59.34
2023-03-03T18:57:12.225Z,59.62
2023-03-03T18:59:41.280Z,58.49
2023-03-03T19:02:37.730Z,58.20
2023-03-03T19:05:18.933Z,59.23
2023-03-03T19:07:52.163Z,60.11
2023-03-03T19:10:18.703Z,59.78
2023-03-03T19:12:52.483Z,58.91
2023-03-03T19:15:31.414Z,58.83
2023-03-03T19:18:16.752Z,57.75
2023-03-03T19:21:02.983Z,57.25
2023-03-03T19:23:52.190Z,57.21
2023-03-03T19:26:24.871Z,56.57
2023-03-03T19:28:58.108Z,56.39
2023-03-03T19:31:49.763Z,56.33
2023-03-03T19:34:39.950Z,56.14
2023-03-03T19:37:32.039Z,56.67
2023-03-03T19:40:27.617Z,56.00
2023-03-03T19:43:12.613Z,57.48
2023-03-03T19:46:04.391Z,58.01
2023-03-03T19:48:52.621Z,58.41
2023-03-03T19:51:49.356Z,58.54
2023-03-03T19:54:34.376Z,57.78
2023-03-03T19:57:04.250Z,58.09
2023-03-03T19:59:49.328Z,57.69
2023-03-03T20:02:42.274Z,58.27
2023-03-03T20:05:27.061Z,58.88
2023-03-03T20:08:35.534Z,57.62
2023-03-03T20:11:45.846Z,58.06
2023-03-03T20:14:29.224Z,58.26
2023-03-03T20:17:11.973Z,57.75
2023-03-03T20:20:03.553Z,57.88
2023-03-03T20:22:51.790Z,58.18
2023-03-03T20:25:36.118Z,58.11
2023-03-03T20:28:24.477Z,57.47
2023-03-03T20:31:03.436Z,57.55
2023-03-03T20:33:44.139Z,57.19
2023-03-03T20:36:23.371Z,57.23
2023-03-03T20:39:08.159Z,56.57
2023-03-03T20:41:41.648Z,55.35
2023-03-03T20:44:34.197Z,55.11
2023-03-03T20:47:15.318Z,54.98
2023-03-03T20:50:03.807Z,54.75
2023-03-03T20:52:58.676Z,54.65
2023-03-03T20:55:42.473Z,54.43
2023-03-03T20:58:31.995Z,53.64
2023-03-03T21:01:04.406Z,53.73
2023-03-03T21:03:39.845Z,53.47
2023-03-03T21:06:09.416Z,54.24
2023-03-03T21:08:56.148Z,54.61
2023-03-03T21:11:31.656Z,54.33
2023-03-03T21:13:59.378Z,55.05
2023-03-03T21:16:25.877Z,54.52
2023-03-03T21:19:02.987Z,54.21
2023-03-03T21:21:41.343Z,54.12
2023-03-03T21:24:19.441Z,53.58
2023-03-03T21:26:57.823Z,53.86
2023-03-03T21:29:31.456Z,54.10
2023-03-03T21:32:02.942Z,54.66
2023-03-03T21:34:34.858Z,54.61
2023-03-03T21:37:10.094Z,54.32
2023-03-03T21:39:41.713Z,55.09
2023-03-03T21:42:18.644Z,55.31
2023-03-03T21:44:49.519Z,54.76
2023-03-03T21:47:19.682Z,54.99
2023-03-03T21:49:51.565Z,55.04
2023-03-03T21:52:20.075Z,54.85
2023-03-03T21:54:48.602Z,54.47
2023-03-03T21:57:15.979Z,54.17
2023-03-03T21:59:42.612Z,53.96
2023-03-03T22:02:10.192Z,54.74
2023-03-03T22:04:38.777Z,54.52
2023-03-03T22:07:05.884Z,54.15
2023-03-03T22:09:32.385Z,54.79
2023-03-03T22:11:59.093Z,55.39
2023-03-03T22:14:25.868Z,54.73
2023-03-03T22:16:52.609Z,54.54
2023-03-03T22:19:19.151Z,54.51
2023-03-03T22:21:46.607Z,54.45
2023-03-03T22:24:13.434Z,54.67
2023-03-03T22:26:39.992Z,53.80
2023-03-03T22:29:06.531Z,54.27
2023-03-03T22:31:33.503Z,54.08
2023-03-03T22:34:00.586Z,53.12
2023-03-03T22:36:27.243Z,53.59
2023-03-03T22:38:53.794Z,53.58
2023-03-03T22:41:20.488Z,53.37
2023-03-03T22:43:48.013Z,53.34
2023-03-03T22:46:15.102Z,53.15
2023-03-03T22:48:41.794Z,53.71
2023-03-03T22:51:08.325Z,53.38
2023-03-03T22:53:34.842Z,52.91
2023-03-03T22:56:01.441Z,53.91
2023-03-03T22:58:29.254Z,54.60
2023-03-03T23:00:55.854Z,53.75
2023-03-03T23:03:22.791Z,53.71
2023-03-03T23:05:51.586Z,53.75
2023-03-03T23:08:20.163Z,53.80
2023-03-03T23:10:47.440Z,54.06
2023-03-03T23:13:14.314Z,53.94
2023-03-03T23:15:41.063Z,53.77
2023-03-03T23:18:07.929Z,54.21
2023-03-03T23:20:35.366Z,54.59
2023-03-03T23:23:02.494Z,54.54
2023-03-03T23:25:29.728Z,54.43
2023-03-03T23:27:56.926Z,54.22
2023-03-03T23:30:23.624Z,53.56
2023-03-03T23:32:50.857Z,54.24
2023-03-03T23:35:18.297Z,54.43
2023-03-03T23:37:45.841Z,54.94
2023-03-03T23:40:14.507Z,54.94
2023-03-03T23:42:41.169Z,55.37
2023-03-03T23:45:09.176Z,55.77
2023-03-03T23:47:36.148Z,55.75
2023-03-03T23:50:02.926Z,55.49
2023-03-03T23:52:29.419Z,56.51
2023-03-03T23:54:55.982Z,56.66
2023-03-03T23:57:22.492Z,57.36
2023-03-03T23:59:49.706Z,57.07
